sensor_id;sensor_type;location;lat;lon;timestamp;P1;durP1;ratioP1;P2;durP2;ratioP2
67051;SDS011;53957;47.222;18.670;2022-12-08T00:01:31;30.45;;;16.45;;
67051;SDS011;53957;47.222;18.670;2022-12-08T00:04:36;30.55;;;17.83;;
67051;SDS011;53957;47.222;18.670;2022-12-08T00:07:59;27.62;;;16.52;;
67051;SDS011;53957;47.222;18.670;2022-12-08T00:11:21;25.00;;;15.07;;
67051;SDS011;53957;47.222;18.670;2022-12-08T00:14:28;29.08;;;16.62;;
67051;SDS011;53957;47.222;18.670;2022-12-08T00:17:35;22.23;;;14.38;;
67051;SDS011;53957;47.222;18.670;2022-12-08T00:20:38;25.17;;;15.18;;
67051;SDS011;53957;47.222;18.670;2022-12-08T00:23:41;23.80;;;15.82;;
67051;SDS011;53957;47.222;18.670;2022-12-08T00:26:43;26.37;;;15.60;;
67051;SDS011;53957;47.222;18.670;2022-12-08T00:29:48;23.42;;;14.85;;
67051;SDS011;53957;47.222;18.670;2022-12-08T00:33:11;30.20;;;16.37;;
67051;SDS011;53957;47.222;18.670;2022-12-08T00:36:15;28.85;;;17.48;;
67051;SDS011;53957;47.222;18.670;2022-12-08T00:39:18;36.15;;;18.52;;
67051;SDS011;53957;47.222;18.670;2022-12-08T00:42:21;27.20;;;17.27;;
67051;SDS011;53957;47.222;18.670;2022-12-08T00:45:23;28.25;;;14.85;;
67051;SDS011;53957;47.222;18.670;2022-12-08T00:48:27;18.80;;;13.82;;
67051;SDS011;53957;47.222;18.670;2022-12-08T00:51:29;23.77;;;14.75;;
67051;SDS011;53957;47.222;18.670;2022-12-08T00:54:33;27.17;;;15.57;;
67051;SDS011;53957;47.222;18.670;2022-12-08T00:57:36;22.40;;;14.32;;
67051;SDS011;53957;47.222;18.670;2022-12-08T01:00:40;20.62;;;14.25;;
67051;SDS011;53957;47.222;18.670;2022-12-08T01:03:44;22.67;;;15.23;;
67051;SDS011;53957;47.222;18.670;2022-12-08T01:06:48;27.45;;;15.23;;
67051;SDS011;53957;47.222;18.670;2022-12-08T01:09:52;21.23;;;14.98;;
67051;SDS011;53957;47.222;18.670;2022-12-08T01:12:57;26.80;;;17.65;;
67051;SDS011;53957;47.222;18.670;2022-12-08T01:16:00;25.67;;;15.93;;
67051;SDS011;53957;47.222;18.670;2022-12-08T01:19:03;22.80;;;14.55;;
67051;SDS011;53957;47.222;18.670;2022-12-08T01:22:06;21.73;;;14.30;;
67051;SDS011;53957;47.222;18.670;2022-12-08T01:25:10;21.00;;;13.05;;
67051;SDS011;53957;47.222;18.670;2022-12-08T01:28:12;17.83;;;13.25;;
67051;SDS011;53957;47.222;18.670;2022-12-08T01:31:17;19.30;;;13.40;;
67051;SDS011;53957;47.222;18.670;2022-12-08T01:34:21;27.98;;;14.07;;
67051;SDS011;53957;47.222;18.670;2022-12-08T01:37:24;21.85;;;13.88;;
67051;SDS011;53957;47.222;18.670;2022-12-08T01:40:27;22.37;;;14.35;;
67051;SDS011;53957;47.222;18.670;2022-12-08T01:43:44;22.33;;;14.73;;
67051;SDS011;53957;47.222;18.670;2022-12-08T01:46:50;26.45;;;14.80;;
67051;SDS011;53957;47.222;18.670;2022-12-08T01:49:56;18.42;;;13.55;;
67051;SDS011;53957;47.222;18.670;2022-12-08T01:53:16;22.10;;;14.40;;
67051;SDS011;53957;47.222;18.670;2022-12-08T02:00:18;20.37;;;14.32;;
67051;SDS011;53957;47.222;18.670;2022-12-08T02:04:06;18.52;;;13.13;;
67051;SDS011;53957;47.222;18.670;2022-12-08T02:06:53;17.42;;;13.25;;
67051;SDS011;53957;47.222;18.670;2022-12-08T02:09:58;23.20;;;15.05;;
67051;SDS011;53957;47.222;18.670;2022-12-08T02:13:03;19.60;;;13.27;;
67051;SDS011;53957;47.222;18.670;2022-12-08T02:22:53;18.83;;;13.52;;
67051;SDS011;53957;47.222;18.670;2022-12-08T02:43:16;16.90;;;12.52;;
67051;SDS011;53957;47.222;18.670;2022-12-08T02:46:27;21.55;;;13.55;;
67051;SDS011;53957;47.222;18.670;2022-12-08T02:49:35;17.70;;;12.30;;
67051;SDS011;53957;47.222;18.670;2022-12-08T02:52:39;19.65;;;13.32;;
67051;SDS011;53957;47.222;18.670;2022-12-08T03:05:04;19.20;;;11.85;;
67051;SDS011;53957;47.222;18.670;2022-12-08T03:08:23;18.30;;;13.18;;
67051;SDS011;53957;47.222;18.670;2022-12-08T03:11:43;27.25;;;14.18;;
67051;SDS011;53957;47.222;18.670;2022-12-08T03:14:55;21.90;;;13.55;;
67051;SDS011;53957;47.222;18.670;2022-12-08T03:21:09;19.98;;;11.25;;
67051;SDS011;53957;47.222;18.670;2022-12-08T03:24:15;16.48;;;11.90;;
67051;SDS011;53957;47.222;18.670;2022-12-08T03:27:21;16.87;;;12.02;;
67051;SDS011;53957;47.222;18.670;2022-12-08T03:30:30;19.12;;;12.23;;
67051;SDS011;53957;47.222;18.670;2022-12-08T03:33:39;22.85;;;13.10;;
67051;SDS011;53957;47.222;18.670;2022-12-08T03:36:50;20.88;;;12.82;;
67051;SDS011;53957;47.222;18.670;2022-12-08T03:39:53;17.25;;;12.25;;
67051;SDS011;53957;47.222;18.670;2022-12-08T03:42:56;22.25;;;14.50;;
67051;SDS011;53957;47.222;18.670;2022-12-08T03:45:59;16.50;;;12.20;;
67051;SDS011;53957;47.222;18.670;2022-12-08T03:49:02;22.08;;;14.80;;
67051;SDS011;53957;47.222;18.670;2022-12-08T03:52:05;19.45;;;13.13;;
67051;SDS011;53957;47.222;18.670;2022-12-08T03:55:08;23.33;;;14.15;;
67051;SDS011;53957;47.222;18.670;2022-12-08T03:58:11;19.75;;;11.70;;
67051;SDS011;53957;47.222;18.670;2022-12-08T04:01:14;24.30;;;12.63;;
67051;SDS011;53957;47.222;18.670;2022-12-08T04:04:17;17.08;;;12.55;;
67051;SDS011;53957;47.222;18.670;2022-12-08T04:07:20;19.70;;;13.18;;
67051;SDS011;53957;47.222;18.670;2022-12-08T04:10:23;16.12;;;12.15;;
67051;SDS011;53957;47.222;18.670;2022-12-08T04:13:26;18.75;;;12.95;;
67051;SDS011;53957;47.222;18.670;2022-12-08T04:16:29;17.65;;;13.80;;
67051;SDS011;53957;47.222;18.670;2022-12-08T04:19:32;17.95;;;12.93;;
67051;SDS011;53957;47.222;18.670;2022-12-08T04:22:54;19.48;;;13.35;;
67051;SDS011;53957;47.222;18.670;2022-12-08T04:25:57;18.23;;;13.52;;
67051;SDS011;53957;47.222;18.670;2022-12-08T04:29:20;18.45;;;12.88;;
67051;SDS011;53957;47.222;18.670;2022-12-08T04:32:23;21.05;;;13.82;;
67051;SDS011;53957;47.222;18.670;2022-12-08T04:35:26;17.80;;;13.35;;
67051;SDS011;53957;47.222;18.670;2022-12-08T04:38:29;19.55;;;12.73;;
67051;SDS011;53957;47.222;18.670;2022-12-08T04:41:34;18.67;;;13.93;;
67051;SDS011;53957;47.222;18.670;2022-12-08T04:44:57;19.48;;;13.55;;
67051;SDS011;53957;47.222;18.670;2022-12-08T04:48:01;20.05;;;13.98;;
67051;SDS011;53957;47.222;18.670;2022-12-08T04:51:04;20.23;;;13.10;;
67051;SDS011;53957;47.222;18.670;2022-12-08T04:54:27;24.05;;;13.80;;
67051;SDS011;53957;47.222;18.670;2022-12-08T04:57:34;19.00;;;13.52;;
67051;SDS011;53957;47.222;18.670;2022-12-08T05:00:39;21.62;;;14.40;;
67051;SDS011;53957;47.222;18.670;2022-12-08T05:03:50;20.20;;;12.98;;
67051;SDS011;53957;47.222;18.670;2022-12-08T05:06:54;21.30;;;13.68;;
67051;SDS011;53957;47.222;18.670;2022-12-08T05:09:58;20.45;;;13.90;;
67051;SDS011;53957;47.222;18.670;2022-12-08T05:13:10;26.25;;;14.73;;
67051;SDS011;53957;47.222;18.670;2022-12-08T05:16:14;18.73;;;13.40;;
67051;SDS011;53957;47.222;18.670;2022-12-08T05:19:21;26.20;;;15.05;;
67051;SDS011;53957;47.222;18.670;2022-12-08T05:22:44;18.42;;;11.32;;
67051;SDS011;53957;47.222;18.670;2022-12-08T05:25:48;20.95;;;13.70;;
67051;SDS011;53957;47.222;18.670;2022-12-08T05:28:55;22.10;;;13.10;;
67051;SDS011;53957;47.222;18.670;2022-12-08T05:31:58;19.83;;;14.15;;
67051;SDS011;53957;47.222;18.670;2022-12-08T05:35:02;21.00;;;14.23;;
67051;SDS011;53957;47.222;18.670;2022-12-08T05:38:16;18.27;;;13.32;;
67051;SDS011;53957;47.222;18.670;2022-12-08T05:41:19;20.02;;;13.45;;
67051;SDS011;53957;47.222;18.670;2022-12-08T05:44:25;24.40;;;14.45;;
67051;SDS011;53957;47.222;18.670;2022-12-08T05:47:30;25.52;;;15.30;;
67051;SDS011;53957;47.222;18.670;2022-12-08T05:50:57;29.00;;;17.95;;
67051;SDS011;53957;47.222;18.670;2022-12-08T05:54:00;21.00;;;15.50;;
67051;SDS011;53957;47.222;18.670;2022-12-08T05:57:23;33.13;;;18.27;;
67051;SDS011;53957;47.222;18.670;2022-12-08T06:00:46;26.80;;;17.87;;
67051;SDS011;53957;47.222;18.670;2022-12-08T06:04:16;28.70;;;17.65;;
67051;SDS011;53957;47.222;18.670;2022-12-08T06:07:41;22.40;;;16.45;;
67051;SDS011;53957;47.222;18.670;2022-12-08T06:11:04;25.08;;;14.43;;
67051;SDS011;53957;47.222;18.670;2022-12-08T06:14:11;29.48;;;16.12;;
67051;SDS011;53957;47.222;18.670;2022-12-08T06:17:14;23.38;;;16.35;;
67051;SDS011;53957;47.222;18.670;2022-12-08T06:20:41;22.98;;;15.52;;
67051;SDS011;53957;47.222;18.670;2022-12-08T06:23:48;21.00;;;13.38;;
67051;SDS011;53957;47.222;18.670;2022-12-08T06:26:52;27.67;;;15.82;;
67051;SDS011;53957;47.222;18.670;2022-12-08T06:29:56;24.60;;;17.30;;
67051;SDS011;53957;47.222;18.670;2022-12-08T06:32:59;31.98;;;18.35;;
67051;SDS011;53957;47.222;18.670;2022-12-08T06:36:03;24.80;;;16.40;;
67051;SDS011;53957;47.222;18.670;2022-12-08T06:39:07;26.70;;;16.05;;
67051;SDS011;53957;47.222;18.670;2022-12-08T06:42:11;25.55;;;15.30;;
67051;SDS011;53957;47.222;18.670;2022-12-08T06:46:14;24.30;;;15.60;;
67051;SDS011;53957;47.222;18.670;2022-12-08T06:49:34;24.55;;;15.48;;
67051;SDS011;53957;47.222;18.670;2022-12-08T06:52:37;25.25;;;17.73;;
67051;SDS011;53957;47.222;18.670;2022-12-08T06:56:00;20.48;;;15.57;;
67051;SDS011;53957;47.222;18.670;2022-12-08T06:59:03;19.83;;;12.95;;
67051;SDS011;53957;47.222;18.670;2022-12-08T07:02:14;22.25;;;12.73;;
67051;SDS011;53957;47.222;18.670;2022-12-08T07:05:17;21.70;;;14.80;;
67051;SDS011;53957;47.222;18.670;2022-12-08T07:08:23;22.25;;;15.20;;
67051;SDS011;53957;47.222;18.670;2022-12-08T07:11:26;25.83;;;14.65;;
67051;SDS011;53957;47.222;18.670;2022-12-08T07:14:30;19.17;;;14.73;;
67051;SDS011;53957;47.222;18.670;2022-12-08T07:17:32;26.75;;;16.20;;
67051;SDS011;53957;47.222;18.670;2022-12-08T07:20:35;26.87;;;15.43;;
67051;SDS011;53957;47.222;18.670;2022-12-08T07:23:38;22.73;;;16.62;;
67051;SDS011;53957;47.222;18.670;2022-12-08T07:26:42;19.67;;;14.02;;
67051;SDS011;53957;47.222;18.670;2022-12-08T07:29:44;23.02;;;15.45;;
67051;SDS011;53957;47.222;18.670;2022-12-08T07:32:50;19.20;;;13.38;;
67051;SDS011;53957;47.222;18.670;2022-12-08T07:36:12;19.85;;;14.77;;
67051;SDS011;53957;47.222;18.670;2022-12-08T07:39:21;16.42;;;11.93;;
67051;SDS011;53957;47.222;18.670;2022-12-08T07:42:23;12.50;;;10.52;;
67051;SDS011;53957;47.222;18.670;2022-12-08T07:45:46;17.17;;;12.32;;
67051;SDS011;53957;47.222;18.670;2022-12-08T07:49:10;20.88;;;11.68;;
67051;SDS011;53957;47.222;18.670;2022-12-08T07:52:16;18.00;;;13.10;;
67051;SDS011;53957;47.222;18.670;2022-12-08T07:55:19;19.95;;;11.80;;
67051;SDS011;53957;47.222;18.670;2022-12-08T07:58:40;7.78;;;7.18;;
67051;SDS011;53957;47.222;18.670;2022-12-08T08:02:03;18.17;;;12.48;;
67051;SDS011;53957;47.222;18.670;2022-12-08T08:05:26;18.75;;;11.68;;
67051;SDS011;53957;47.222;18.670;2022-12-08T08:08:29;15.75;;;11.02;;
67051;SDS011;53957;47.222;18.670;2022-12-08T08:11:52;11.25;;;9.10;;
67051;SDS011;53957;47.222;18.670;2022-12-08T08:15:34;10.70;;;9.10;;
67051;SDS011;53957;47.222;18.670;2022-12-08T08:18:58;16.00;;;12.40;;
67051;SDS011;53957;47.222;18.670;2022-12-08T08:22:00;11.90;;;10.38;;
67051;SDS011;53957;47.222;18.670;2022-12-08T08:25:05;13.43;;;10.57;;
67051;SDS011;53957;47.222;18.670;2022-12-08T08:28:25;12.73;;;8.88;;
67051;SDS011;53957;47.222;18.670;2022-12-08T08:31:48;22.15;;;15.15;;
67051;SDS011;53957;47.222;18.670;2022-12-08T08:35:11;21.58;;;14.10;;
67051;SDS011;53957;47.222;18.670;2022-12-08T08:38:15;22.75;;;13.43;;
67051;SDS011;53957;47.222;18.670;2022-12-08T08:41:18;27.55;;;15.93;;
67051;SDS011;53957;47.222;18.670;2022-12-08T08:44:26;18.25;;;11.70;;
67051;SDS011;53957;47.222;18.670;2022-12-08T08:47:29;14.40;;;8.98;;
67051;SDS011;53957;47.222;18.670;2022-12-08T08:50:52;24.63;;;16.37;;
67051;SDS011;53957;47.222;18.670;2022-12-08T08:53:56;22.00;;;14.02;;
67051;SDS011;53957;47.222;18.670;2022-12-08T08:57:00;18.37;;;11.82;;
67051;SDS011;53957;47.222;18.670;2022-12-08T09:00:04;21.48;;;13.65;;
67051;SDS011;53957;47.222;18.670;2022-12-08T09:03:12;25.08;;;13.68;;
67051;SDS011;53957;47.222;18.670;2022-12-08T09:06:15;22.77;;;13.75;;
67051;SDS011;53957;47.222;18.670;2022-12-08T09:09:39;22.90;;;15.48;;
67051;SDS011;53957;47.222;18.670;2022-12-08T09:12:42;22.87;;;13.43;;
67051;SDS011;53957;47.222;18.670;2022-12-08T09:15:45;27.13;;;15.43;;
67051;SDS011;53957;47.222;18.670;2022-12-08T09:18:48;21.90;;;14.50;;
67051;SDS011;53957;47.222;18.670;2022-12-08T09:21:51;22.08;;;14.95;;
67051;SDS011;53957;47.222;18.670;2022-12-08T09:24:54;18.80;;;13.60;;
67051;SDS011;53957;47.222;18.670;2022-12-08T09:27:58;18.87;;;13.65;;
67051;SDS011;53957;47.222;18.670;2022-12-08T09:31:01;20.35;;;13.45;;
67051;SDS011;53957;47.222;18.670;2022-12-08T09:34:04;21.10;;;14.20;;
67051;SDS011;53957;47.222;18.670;2022-12-08T09:37:07;24.92;;;14.13;;
67051;SDS011;53957;47.222;18.670;2022-12-08T09:40:15;18.98;;;12.65;;
67051;SDS011;53957;47.222;18.670;2022-12-08T09:46:48;18.60;;;12.48;;
67051;SDS011;53957;47.222;18.670;2022-12-08T09:50:04;19.70;;;13.88;;
67051;SDS011;53957;47.222;18.670;2022-12-08T10:35:04;14.63;;;10.45;;
67051;SDS011;53957;47.222;18.670;2022-12-08T10:38:15;15.75;;;12.52;;
67051;SDS011;53957;47.222;18.670;2022-12-08T10:41:24;13.85;;;9.57;;
67051;SDS011;53957;47.222;18.670;2022-12-08T10:44:27;13.45;;;8.95;;
67051;SDS011;53957;47.222;18.670;2022-12-08T10:47:34;11.57;;;9.77;;
67051;SDS011;53957;47.222;18.670;2022-12-08T10:50:41;14.27;;;11.30;;
67051;SDS011;53957;47.222;18.670;2022-12-08T10:53:45;12.10;;;8.35;;
67051;SDS011;53957;47.222;18.670;2022-12-08T10:56:52;20.00;;;11.35;;
67051;SDS011;53957;47.222;18.670;2022-12-08T10:59:56;9.38;;;8.20;;
67051;SDS011;53957;47.222;18.670;2022-12-08T11:03:00;11.38;;;7.70;;
67051;SDS011;53957;47.222;18.670;2022-12-08T11:06:11;6.47;;;4.97;;
67051;SDS011;53957;47.222;18.670;2022-12-08T11:12:21;12.75;;;9.00;;
67051;SDS011;53957;47.222;18.670;2022-12-08T11:16:29;7.87;;;6.20;;
67051;SDS011;53957;47.222;18.670;2022-12-08T11:19:57;12.27;;;8.85;;
67051;SDS011;53957;47.222;18.670;2022-12-08T11:24:21;6.85;;;6.12;;
67051;SDS011;53957;47.222;18.670;2022-12-08T11:28:09;12.63;;;7.30;;
67051;SDS011;53957;47.222;18.670;2022-12-08T11:31:30;18.25;;;9.57;;
67051;SDS011;53957;47.222;18.670;2022-12-08T11:34:55;14.63;;;10.05;;
67051;SDS011;53957;47.222;18.670;2022-12-08T11:38:05;10.98;;;7.15;;
67051;SDS011;53957;47.222;18.670;2022-12-08T11:41:26;19.70;;;12.45;;
67051;SDS011;53957;47.222;18.670;2022-12-08T11:44:53;16.10;;;10.35;;
67051;SDS011;53957;47.222;18.670;2022-12-08T11:48:16;11.73;;;9.13;;
67051;SDS011;53957;47.222;18.670;2022-12-08T11:58:19;8.85;;;7.30;;
67051;SDS011;53957;47.222;18.670;2022-12-08T12:01:43;14.60;;;9.13;;
67051;SDS011;53957;47.222;18.670;2022-12-08T12:04:48;9.65;;;7.12;;
67051;SDS011;53957;47.222;18.670;2022-12-08T12:08:02;14.02;;;9.18;;
67051;SDS011;53957;47.222;18.670;2022-12-08T12:15:11;13.15;;;9.38;;
67051;SDS011;53957;47.222;18.670;2022-12-08T12:18:26;16.40;;;11.00;;
67051;SDS011;53957;47.222;18.670;2022-12-08T12:21:52;18.80;;;11.77;;
67051;SDS011;53957;47.222;18.670;2022-12-08T12:24:57;14.80;;;9.85;;
67051;SDS011;53957;47.222;18.670;2022-12-08T12:28:01;18.17;;;9.13;;
67051;SDS011;53957;47.222;18.670;2022-12-08T12:31:12;16.60;;;10.73;;
67051;SDS011;53957;47.222;18.670;2022-12-08T12:34:23;10.05;;;7.10;;
67051;SDS011;53957;47.222;18.670;2022-12-08T12:37:34;10.70;;;7.18;;
67051;SDS011;53957;47.222;18.670;2022-12-08T12:40:40;11.30;;;8.30;;
67051;SDS011;53957;47.222;18.670;2022-12-08T12:44:05;15.52;;;10.43;;
67051;SDS011;53957;47.222;18.670;2022-12-08T12:47:13;17.60;;;12.85;;
67051;SDS011;53957;47.222;18.670;2022-12-08T12:50:58;12.77;;;9.85;;
67051;SDS011;53957;47.222;18.670;2022-12-08T12:54:23;15.10;;;10.70;;
67051;SDS011;53957;47.222;18.670;2022-12-08T12:57:35;14.60;;;9.65;;
67051;SDS011;53957;47.222;18.670;2022-12-08T13:01:12;13.90;;;10.30;;
67051;SDS011;53957;47.222;18.670;2022-12-08T13:04:14;18.60;;;14.40;;
67051;SDS011;53957;47.222;18.670;2022-12-08T13:07:19;33.20;;;17.55;;
67051;SDS011;53957;47.222;18.670;2022-12-08T13:10:37;18.27;;;11.85;;
67051;SDS011;53957;47.222;18.670;2022-12-08T13:14:31;11.88;;;8.88;;
67051;SDS011;53957;47.222;18.670;2022-12-08T13:33:42;15.60;;;9.68;;
67051;SDS011;53957;47.222;18.670;2022-12-08T13:36:51;18.23;;;11.15;;
67051;SDS011;53957;47.222;18.670;2022-12-08T13:40:07;16.90;;;11.25;;
67051;SDS011;53957;47.222;18.670;2022-12-08T13:43:19;20.50;;;11.02;;
67051;SDS011;53957;47.222;18.670;2022-12-08T13:46:50;14.65;;;10.30;;
67051;SDS011;53957;47.222;18.670;2022-12-08T13:54:04;20.58;;;13.02;;
67051;SDS011;53957;47.222;18.670;2022-12-08T13:57:31;28.60;;;15.15;;
67051;SDS011;53957;47.222;18.670;2022-12-08T14:00:36;22.85;;;12.85;;
67051;SDS011;53957;47.222;18.670;2022-12-08T14:03:47;20.45;;;14.18;;
67051;SDS011;53957;47.222;18.670;2022-12-08T14:07:12;20.98;;;13.40;;
67051;SDS011;53957;47.222;18.670;2022-12-08T14:10:19;22.58;;;14.38;;
67051;SDS011;53957;47.222;18.670;2022-12-08T14:13:25;21.40;;;13.68;;
67051;SDS011;53957;47.222;18.670;2022-12-08T14:16:35;27.62;;;15.27;;
67051;SDS011;53957;47.222;18.670;2022-12-08T14:19:43;19.30;;;12.68;;
67051;SDS011;53957;47.222;18.670;2022-12-08T14:22:54;18.15;;;12.07;;
67051;SDS011;53957;47.222;18.670;2022-12-08T14:25:57;21.77;;;13.27;;
67051;SDS011;53957;47.222;18.670;2022-12-08T14:29:00;23.38;;;12.88;;
67051;SDS011;53957;47.222;18.670;2022-12-08T14:32:04;20.08;;;12.98;;
67051;SDS011;53957;47.222;18.670;2022-12-08T14:35:23;19.55;;;13.00;;
67051;SDS011;53957;47.222;18.670;2022-12-08T14:38:30;24.15;;;13.88;;
67051;SDS011;53957;47.222;18.670;2022-12-08T14:41:33;14.52;;;11.12;;
67051;SDS011;53957;47.222;18.670;2022-12-08T14:44:37;27.27;;;13.48;;
67051;SDS011;53957;47.222;18.670;2022-12-08T14:47:49;19.42;;;13.00;;
67051;SDS011;53957;47.222;18.670;2022-12-08T14:50:54;21.25;;;12.32;;
67051;SDS011;53957;47.222;18.670;2022-12-08T14:54:00;20.67;;;13.00;;
67051;SDS011;53957;47.222;18.670;2022-12-08T14:57:09;20.60;;;12.85;;
67051;SDS011;53957;47.222;18.670;2022-12-08T15:00:19;19.52;;;11.75;;
67051;SDS011;53957;47.222;18.670;2022-12-08T15:03:24;20.70;;;12.37;;
67051;SDS011;53957;47.222;18.670;2022-12-08T15:06:29;24.25;;;11.02;;
67051;SDS011;53957;47.222;18.670;2022-12-08T15:09:36;14.30;;;10.13;;
67051;SDS011;53957;47.222;18.670;2022-12-08T15:19:33;21.33;;;13.27;;
67051;SDS011;53957;47.222;18.670;2022-12-08T15:22:36;19.15;;;12.77;;
67051;SDS011;53957;47.222;18.670;2022-12-08T15:25:40;19.50;;;11.90;;
67051;SDS011;53957;47.222;18.670;2022-12-08T15:28:43;20.80;;;13.93;;
67051;SDS011;53957;47.222;18.670;2022-12-08T15:31:47;15.45;;;11.55;;
67051;SDS011;53957;47.222;18.670;2022-12-08T15:34:50;21.87;;;12.05;;
67051;SDS011;53957;47.222;18.670;2022-12-08T15:38:54;20.77;;;13.20;;
67051;SDS011;53957;47.222;18.670;2022-12-08T15:42:36;22.52;;;14.00;;
67051;SDS011;53957;47.222;18.670;2022-12-08T15:46:19;28.83;;;17.15;;
67051;SDS011;53957;47.222;18.670;2022-12-08T15:54:31;21.33;;;14.48;;
67051;SDS011;53957;47.222;18.670;2022-12-08T15:57:34;23.15;;;15.07;;
67051;SDS011;53957;47.222;18.670;2022-12-08T16:00:57;30.92;;;18.08;;
67051;SDS011;53957;47.222;18.670;2022-12-08T16:04:00;24.80;;;17.12;;
67051;SDS011;53957;47.222;18.670;2022-12-08T16:07:27;23.52;;;14.65;;
67051;SDS011;53957;47.222;18.670;2022-12-08T16:10:31;27.55;;;12.60;;
67051;SDS011;53957;47.222;18.670;2022-12-08T16:13:54;20.08;;;13.65;;
67051;SDS011;53957;47.222;18.670;2022-12-08T16:17:19;21.90;;;14.25;;
67051;SDS011;53957;47.222;18.670;2022-12-08T16:20:23;25.62;;;14.87;;
67051;SDS011;53957;47.222;18.670;2022-12-08T16:23:46;19.30;;;12.65;;
67051;SDS011;53957;47.222;18.670;2022-12-08T16:26:49;19.90;;;13.40;;
67051;SDS011;53957;47.222;18.670;2022-12-08T16:30:13;21.25;;;13.23;;
67051;SDS011;53957;47.222;18.670;2022-12-08T16:33:18;19.17;;;12.32;;
67051;SDS011;53957;47.222;18.670;2022-12-08T16:36:21;20.65;;;14.48;;
67051;SDS011;53957;47.222;18.670;2022-12-08T16:39:24;18.77;;;13.70;;
67051;SDS011;53957;47.222;18.670;2022-12-08T16:42:28;19.52;;;10.75;;
67051;SDS011;53957;47.222;18.670;2022-12-08T16:45:40;22.20;;;13.43;;
67051;SDS011;53957;47.222;18.670;2022-12-08T16:48:46;36.42;;;18.37;;
67051;SDS011;53957;47.222;18.670;2022-12-08T16:51:49;16.02;;;10.38;;
67051;SDS011;53957;47.222;18.670;2022-12-08T16:54:52;20.98;;;12.88;;
67051;SDS011;53957;47.222;18.670;2022-12-08T16:57:55;25.45;;;12.85;;
67051;SDS011;53957;47.222;18.670;2022-12-08T17:00:58;22.10;;;13.55;;
67051;SDS011;53957;47.222;18.670;2022-12-08T17:04:01;15.35;;;10.25;;
67051;SDS011;53957;47.222;18.670;2022-12-08T17:07:24;19.98;;;13.65;;
67051;SDS011;53957;47.222;18.670;2022-12-08T17:10:29;13.13;;;10.75;;
67051;SDS011;53957;47.222;18.670;2022-12-08T17:13:37;9.13;;;7.97;;
67051;SDS011;53957;47.222;18.670;2022-12-08T17:16:42;18.80;;;12.50;;
67051;SDS011;53957;47.222;18.670;2022-12-08T17:19:46;19.90;;;12.80;;
67051;SDS011;53957;47.222;18.670;2022-12-08T17:22:52;10.90;;;9.73;;
67051;SDS011;53957;47.222;18.670;2022-12-08T17:25:57;23.17;;;14.07;;
67051;SDS011;53957;47.222;18.670;2022-12-08T17:29:02;22.27;;;14.20;;
67051;SDS011;53957;47.222;18.670;2022-12-08T17:32:06;17.37;;;13.38;;
67051;SDS011;53957;47.222;18.670;2022-12-08T17:35:09;15.05;;;12.32;;
67051;SDS011;53957;47.222;18.670;2022-12-08T17:38:13;15.40;;;12.02;;
67051;SDS011;53957;47.222;18.670;2022-12-08T17:41:16;20.15;;;12.68;;
67051;SDS011;53957;47.222;18.670;2022-12-08T17:44:19;15.90;;;10.32;;
67051;SDS011;53957;47.222;18.670;2022-12-08T17:47:22;16.90;;;11.80;;
67051;SDS011;53957;47.222;18.670;2022-12-08T17:50:25;17.23;;;12.45;;
67051;SDS011;53957;47.222;18.670;2022-12-08T17:53:28;21.75;;;15.10;;
67051;SDS011;53957;47.222;18.670;2022-12-08T17:59:41;16.37;;;12.45;;
67051;SDS011;53957;47.222;18.670;2022-12-08T18:02:44;20.70;;;13.40;;
67051;SDS011;53957;47.222;18.670;2022-12-08T18:05:47;19.25;;;14.25;;
67051;SDS011;53957;47.222;18.670;2022-12-08T18:08:50;17.75;;;11.30;;
67051;SDS011;53957;47.222;18.670;2022-12-08T18:11:53;24.70;;;15.68;;
67051;SDS011;53957;47.222;18.670;2022-12-08T18:14:56;14.93;;;10.65;;
67051;SDS011;53957;47.222;18.670;2022-12-08T18:18:00;27.83;;;15.18;;
67051;SDS011;53957;47.222;18.670;2022-12-08T18:21:03;15.63;;;11.80;;
67051;SDS011;53957;47.222;18.670;2022-12-08T18:24:07;13.10;;;10.02;;
67051;SDS011;53957;47.222;18.670;2022-12-08T18:27:16;17.77;;;13.18;;
67051;SDS011;53957;47.222;18.670;2022-12-08T18:30:19;20.67;;;13.32;;
67051;SDS011;53957;47.222;18.670;2022-12-08T18:33:22;22.77;;;14.95;;
67051;SDS011;53957;47.222;18.670;2022-12-08T18:36:25;24.25;;;16.58;;
67051;SDS011;53957;47.222;18.670;2022-12-08T18:39:29;26.12;;;17.83;;
67051;SDS011;53957;47.222;18.670;2022-12-08T18:42:34;23.35;;;15.50;;
67051;SDS011;53957;47.222;18.670;2022-12-08T18:45:36;21.08;;;14.85;;
67051;SDS011;53957;47.222;18.670;2022-12-08T18:48:43;22.45;;;14.63;;
67051;SDS011;53957;47.222;18.670;2022-12-08T18:51:48;24.02;;;15.13;;
67051;SDS011;53957;47.222;18.670;2022-12-08T18:54:51;25.17;;;14.85;;
67051;SDS011;53957;47.222;18.670;2022-12-08T18:58:13;28.30;;;16.40;;
67051;SDS011;53957;47.222;18.670;2022-12-08T19:01:16;29.70;;;18.87;;
67051;SDS011;53957;47.222;18.670;2022-12-08T19:04:19;31.62;;;19.85;;
67051;SDS011;53957;47.222;18.670;2022-12-08T19:07:31;33.83;;;18.92;;
67051;SDS011;53957;47.222;18.670;2022-12-08T19:10:35;30.65;;;20.50;;
67051;SDS011;53957;47.222;18.670;2022-12-08T19:13:39;35.47;;;22.55;;
67051;SDS011;53957;47.222;18.670;2022-12-08T19:16:45;35.47;;;24.23;;
67051;SDS011;53957;47.222;18.670;2022-12-08T19:19:48;31.80;;;20.35;;
67051;SDS011;53957;47.222;18.670;2022-12-08T19:22:51;30.12;;;21.60;;
67051;SDS011;53957;47.222;18.670;2022-12-08T19:25:54;28.10;;;20.10;;
67051;SDS011;53957;47.222;18.670;2022-12-08T19:28:57;30.73;;;19.90;;
67051;SDS011;53957;47.222;18.670;2022-12-08T19:32:00;31.60;;;18.83;;
67051;SDS011;53957;47.222;18.670;2022-12-08T19:35:06;30.45;;;19.50;;
67051;SDS011;53957;47.222;18.670;2022-12-08T19:38:09;32.67;;;17.70;;
67051;SDS011;53957;47.222;18.670;2022-12-08T19:41:12;28.10;;;17.20;;
67051;SDS011;53957;47.222;18.670;2022-12-08T19:44:34;30.77;;;17.85;;
67051;SDS011;53957;47.222;18.670;2022-12-08T19:48:10;29.00;;;16.75;;
67051;SDS011;53957;47.222;18.670;2022-12-08T19:51:15;27.58;;;16.25;;
67051;SDS011;53957;47.222;18.670;2022-12-08T19:54:18;30.73;;;16.90;;
67051;SDS011;53957;47.222;18.670;2022-12-08T19:57:21;24.63;;;17.75;;
67051;SDS011;53957;47.222;18.670;2022-12-08T20:00:24;21.95;;;15.88;;
67051;SDS011;53957;47.222;18.670;2022-12-08T20:03:27;24.80;;;16.27;;
67051;SDS011;53957;47.222;18.670;2022-12-08T20:06:30;28.77;;;16.15;;
67051;SDS011;53957;47.222;18.670;2022-12-08T20:09:33;26.60;;;15.90;;
67051;SDS011;53957;47.222;18.670;2022-12-08T20:12:36;26.65;;;16.00;;
67051;SDS011;53957;47.222;18.670;2022-12-08T20:15:39;27.20;;;16.48;;
67051;SDS011;53957;47.222;18.670;2022-12-08T20:18:42;23.05;;;15.77;;
67051;SDS011;53957;47.222;18.670;2022-12-08T20:21:46;26.00;;;14.18;;
67051;SDS011;53957;47.222;18.670;2022-12-08T20:24:49;19.80;;;14.13;;
67051;SDS011;53957;47.222;18.670;2022-12-08T20:28:00;22.00;;;14.10;;
67051;SDS011;53957;47.222;18.670;2022-12-08T20:31:03;25.50;;;16.50;;